Ganges, Ohio
Current Conditions -  °F | °C
As of 1:15 PM on Tuesday 21 Oct 2014 (Local Time) from KMFD Reporting Station
Overcast Overcast  
Wind Chill: 42°   Ceiling: 1600
Heat Index: 47°   Visibility: 10mi
Dew Point: 46°   Wind: 12mph
Humidity: 97%   Direction: 330°NNW
Pressure: 29.98"   Gusts: 20mph
Location:  40.8848°N, 82.6515°W
Report Text: KMFD 211715Z 33010G17KT 10SM SCT008 OVC016 08/08 A2998 RMK AO2 T00830078
Loading
Personal Weather Stations






























Interactive Weather Map
Tropical Storm Tracking
New forecast layout! Learn more

10-Day Weather Forecast

Advertisements
Track Severe Weather on mobile